Time;durP1;ratioP1;P1;durP2;ratioP2;P2;SDS_P1;SDS_P2;PMS_P1;PMS_P2;Temp;Humidity;BMP_temperature;BMP_pressure;BME280_temperature;BME280_humidity;BME280_pressure;Samples;Min_cycle;Max_cycle;Signal;HPM_P1;HPM_P2
2022/06/28 00:01:04;;;;;;;;;;;23.60;55.20;;;;;;5066123;28;20329;-60
2022/06/28 00:03:32;;;;;;;;;;;23.60;55.10;;;;;;5068110;28;19927;-59
2022/06/28 00:05:59;;;;;;;;;;;23.60;55.10;;;;;;5063211;28;19921;-59
2022/06/28 00:08:25;;;;;;;;;;;23.60;55.10;;;;;;5050547;28;19960;-60
2022/06/28 00:10:52;;;;;;;;;;;23.60;55.10;;;;;;5044626;28;19947;-59
2022/06/28 00:13:19;;;;;;;;;;;23.60;55.10;;;;;;5062724;28;19928;-61
2022/06/28 00:18:32;;;;;;;;;;;23.60;55.10;;;;;;5038871;28;19943;-58
2022/06/28 00:20:58;;;;;;;;;;;23.60;55.10;;;;;;5055337;28;20266;-57
2022/06/28 00:23:25;;;;;;;;;;;23.60;55.10;;;;;;5050321;28;20336;-58
2022/06/28 00:25:52;;;;;;;;;;;23.60;55.10;;;;;;5062645;28;19921;-58
2022/06/28 00:28:18;;;;;;;;;;;23.60;55.10;;;;;;5048346;28;19924;-58
2022/06/28 00:30:45;;;;;;;;;;;23.60;55.10;;;;;;5053304;28;19924;-60
2022/06/28 00:33:12;;;;;;;;;;;23.60;55.00;;;;;;5063841;28;20369;-59
2022/06/28 00:35:40;;;;;;;;;;;23.60;55.00;;;;;;5059750;28;19936;-60
2022/06/28 00:38:07;;;;;;;;;;;23.60;55.00;;;;;;5064776;28;19935;-60
2022/06/28 00:40:34;;;;;;;;;;;23.60;55.00;;;;;;5050388;28;20325;-59
2022/06/28 00:43:01;;;;;;;;;;;23.60;55.00;;;;;;5068499;28;19928;-60
2022/06/28 00:45:28;;;;;;;;;;;23.60;55.00;;;;;;5060620;28;19970;-60
2022/06/28 00:47:55;;;;;;;;;;;23.60;55.00;;;;;;5052312;28;19932;-60
2022/06/28 00:50:22;;;;;;;;;;;23.60;55.00;;;;;;5060350;28;19921;-60
2022/06/28 00:53:03;;;;;;;;;;;23.60;55.00;;;;;;5057300;28;19943;-60
2022/06/28 00:55:30;;;;;;;;;;;23.60;54.90;;;;;;5050743;28;19920;-61
2022/06/28 00:57:57;;;;;;;;;;;23.60;54.90;;;;;;5042206;28;19948;-60
2022/06/28 01:00:24;;;;;;;;;;;23.60;54.90;;;;;;5070372;28;20371;-59
2022/06/28 01:02:51;;;;;;;;;;;23.60;54.90;;;;;;5059123;28;19947;-60
2022/06/28 01:05:18;;;;;;;;;;;23.60;54.90;;;;;;5060813;28;19920;-59
2022/06/28 01:07:44;;;;;;;;;;;23.60;54.80;;;;;;5060401;28;19920;-61
2022/06/28 01:10:13;;;;;;;;;;;23.60;54.90;;;;;;5049055;28;19920;-60
2022/06/28 01:12:39;;;;;;;;;;;23.60;54.80;;;;;;5068990;28;19966;-61
2022/06/28 01:15:07;;;;;;;;;;;23.60;54.80;;;;;;5064153;28;19924;-60
2022/06/28 01:17:34;;;;;;;;;;;23.60;54.80;;;;;;5063370;28;19921;-60
2022/06/28 01:20:00;;;;;;;;;;;23.60;54.80;;;;;;5052532;28;20014;-60
2022/06/28 01:22:27;;;;;;;;;;;23.60;54.80;;;;;;5061565;28;19920;-60
2022/06/28 01:24:55;;;;;;;;;;;23.60;54.80;;;;;;5069573;28;20027;-61
2022/06/28 01:27:22;;;;;;;;;;;23.60;54.80;;;;;;5065009;28;19920;-60
2022/06/28 01:29:49;;;;;;;;;;;23.60;54.80;;;;;;5070150;28;19948;-59
2022/06/28 01:32:15;;;;;;;;;;;23.60;54.80;;;;;;5068086;28;20419;-60
2022/06/28 01:34:42;;;;;;;;;;;23.60;54.80;;;;;;5069639;28;19992;-59
2022/06/28 01:37:09;;;;;;;;;;;23.60;54.80;;;;;;5042328;28;19921;-60
2022/06/28 01:39:36;;;;;;;;;;;23.60;54.80;;;;;;5066236;28;20423;-59
2022/06/28 01:42:05;;;;;;;;;;;23.60;54.70;;;;;;5045330;28;20384;-58
2022/06/28 01:44:31;;;;;;;;;;;23.60;54.70;;;;;;5054220;28;19920;-60
2022/06/28 01:46:58;;;;;;;;;;;23.60;54.70;;;;;;5054545;28;20381;-58
2022/06/28 01:49:25;;;;;;;;;;;23.60;54.70;;;;;;5040374;28;20251;-58
2022/06/28 01:51:52;;;;;;;;;;;23.60;54.70;;;;;;5047943;28;19924;-60
2022/06/28 01:54:18;;;;;;;;;;;23.60;54.70;;;;;;5063028;28;19920;-58
2022/06/28 01:56:45;;;;;;;;;;;23.60;54.70;;;;;;5062302;28;19946;-58
2022/06/28 01:59:13;;;;;;;;;;;23.60;54.70;;;;;;5053047;28;19928;-58
2022/06/28 02:01:40;;;;;;;;;;;23.60;54.60;;;;;;5061581;28;19971;-58
2022/06/28 02:04:17;;;;;;;;;;;23.60;54.60;;;;;;5056560;28;19929;-58
2022/06/28 02:06:44;;;;;;;;;;;23.60;54.60;;;;;;5052464;28;19920;-58
2022/06/28 02:09:11;;;;;;;;;;;23.60;54.60;;;;;;5060702;28;20388;-58
2022/06/28 02:11:37;;;;;;;;;;;23.60;54.60;;;;;;5068035;28;19978;-58
2022/06/28 02:14:04;;;;;;;;;;;23.60;54.50;;;;;;5070940;28;19924;-58
2022/06/28 02:16:32;;;;;;;;;;;23.50;54.50;;;;;;5071709;28;19921;-58
2022/06/28 02:18:59;;;;;;;;;;;23.50;54.50;;;;;;5049310;28;19928;-58
2022/06/28 02:21:26;;;;;;;;;;;23.50;54.50;;;;;;5049640;28;19921;-58
2022/06/28 02:23:52;;;;;;;;;;;23.50;54.50;;;;;;5069243;28;19920;-60
2022/06/28 02:26:19;;;;;;;;;;;23.50;54.50;;;;;;5056025;28;20033;-58
2022/06/28 02:28:46;;;;;;;;;;;23.60;54.50;;;;;;5043267;28;19966;-59
2022/06/28 02:31:13;;;;;;;;;;;23.50;54.50;;;;;;5062639;28;19924;-58
2022/06/28 02:33:41;;;;;;;;;;;23.50;54.40;;;;;;5070766;28;20341;-60
2022/06/28 02:41:51;;;;;;;;;;;23.50;54.40;;;;;;5070494;28;20038;-58
2022/06/28 02:44:19;;;;;;;;;;;23.50;54.40;;;;;;5062177;28;19924;-58
2022/06/28 02:46:45;;;;;;;;;;;23.50;54.40;;;;;;5060802;28;19928;-58
2022/06/28 02:49:14;;;;;;;;;;;23.50;54.40;;;;;;5069007;28;19920;-58
2022/06/28 02:51:41;;;;;;;;;;;23.50;54.40;;;;;;5047973;28;19928;-58
2022/06/28 02:54:07;;;;;;;;;;;23.50;54.40;;;;;;5059079;28;20007;-58
2022/06/28 02:56:34;;;;;;;;;;;23.50;54.30;;;;;;5061278;28;19921;-58
2022/06/28 02:59:01;;;;;;;;;;;23.50;54.30;;;;;;5043679;28;19927;-59
2022/06/28 03:01:32;;;;;;;;;;;23.60;54.40;;;;;;5042245;28;19928;-58
2022/06/28 03:03:59;;;;;;;;;;;23.50;54.40;;;;;;5060357;28;19927;-58
2022/06/28 03:06:27;;;;;;;;;;;23.50;54.30;;;;;;5055232;28;19927;-58
2022/06/28 03:08:53;;;;;;;;;;;23.50;54.30;;;;;;5051067;28;19972;-59
2022/06/28 03:11:20;;;;;;;;;;;23.50;54.30;;;;;;5069158;28;20366;-58
2022/06/28 03:13:47;;;;;;;;;;;23.50;54.30;;;;;;5046057;28;19920;-60
2022/06/28 03:16:14;;;;;;;;;;;23.50;54.30;;;;;;5070579;28;19920;-58
2022/06/28 03:18:40;;;;;;;;;;;23.50;54.20;;;;;;5048796;28;20515;-59
2022/06/28 03:21:07;;;;;;;;;;;23.50;54.20;;;;;;5059767;28;19920;-60
2022/06/28 03:23:35;;;;;;;;;;;23.60;54.30;;;;;;5059843;28;20427;-58
2022/06/28 03:26:02;;;;;;;;;;;23.50;54.20;;;;;;5044082;28;20415;-60
2022/06/28 03:28:29;;;;;;;;;;;23.50;54.20;;;;;;5059675;28;19921;-60
2022/06/28 03:30:55;;;;;;;;;;;23.50;54.20;;;;;;5055761;28;19920;-58
2022/06/28 03:33:22;;;;;;;;;;;23.50;54.20;;;;;;5065592;28;19947;-60
2022/06/28 03:35:49;;;;;;;;;;;23.50;54.20;;;;;;5061964;28;19925;-59
2022/06/28 03:38:16;;;;;;;;;;;23.50;54.20;;;;;;5045206;28;19924;-58
2022/06/28 03:40:44;;;;;;;;;;;23.50;54.20;;;;;;5036196;28;19921;-58
2022/06/28 03:43:11;;;;;;;;;;;23.50;54.20;;;;;;5066890;28;20414;-58
2022/06/28 03:45:37;;;;;;;;;;;23.50;54.20;;;;;;5060669;28;19973;-58
2022/06/28 03:48:04;;;;;;;;;;;23.50;54.10;;;;;;5054837;28;19921;-58
2022/06/28 03:50:31;;;;;;;;;;;23.50;54.20;;;;;;5063891;28;19920;-58
2022/06/28 03:52:58;;;;;;;;;;;23.50;54.20;;;;;;5062586;28;19924;-58
2022/06/28 03:55:25;;;;;;;;;;;23.50;54.20;;;;;;5054802;28;20089;-58
2022/06/28 03:57:53;;;;;;;;;;;23.50;54.20;;;;;;5050341;28;19921;-58
2022/06/28 04:00:19;;;;;;;;;;;23.50;54.20;;;;;;5047073;28;19927;-59
2022/06/28 04:02:46;;;;;;;;;;;23.60;54.20;;;;;;5069791;28;19920;-58
2022/06/28 04:05:13;;;;;;;;;;;23.50;54.20;;;;;;5069336;28;19925;-59
2022/06/28 04:07:40;;;;;;;;;;;23.60;54.30;;;;;;5068865;28;20005;-58
2022/06/28 04:10:07;;;;;;;;;;;23.60;54.30;;;;;;5043624;28;20439;-59
2022/06/28 04:12:34;;;;;;;;;;;23.60;54.30;;;;;;5040759;28;19928;-58
2022/06/28 04:15:02;;;;;;;;;;;23.50;54.20;;;;;;5038876;28;19921;-57
2022/06/28 04:17:29;;;;;;;;;;;23.60;54.30;;;;;;5040485;28;19954;-58
2022/06/28 04:19:56;;;;;;;;;;;23.60;54.30;;;;;;5050277;28;19920;-58
2022/06/28 04:22:22;;;;;;;;;;;23.60;54.40;;;;;;5062412;28;19927;-58
2022/06/28 04:24:49;;;;;;;;;;;23.60;54.30;;;;;;5064627;28;19924;-58
2022/06/28 04:27:16;;;;;;;;;;;23.60;54.30;;;;;;5044665;28;20008;-58
2022/06/28 04:29:43;;;;;;;;;;;23.50;54.30;;;;;;5064548;28;20277;-58
2022/06/28 04:32:11;;;;;;;;;;;23.50;54.30;;;;;;5042933;28;20317;-58
2022/06/28 04:34:38;;;;;;;;;;;23.50;54.30;;;;;;5049805;28;19920;-58
2022/06/28 04:37:04;;;;;;;;;;;23.60;54.40;;;;;;5047141;28;20290;-58
2022/06/28 04:39:31;;;;;;;;;;;23.50;54.30;;;;;;5043516;28;19928;-58
2022/06/28 04:41:58;;;;;;;;;;;23.60;54.30;;;;;;5052542;28;19939;-58
2022/06/28 04:44:25;;;;;;;;;;;23.50;54.30;;;;;;5068387;28;19974;-59
2022/06/28 04:46:51;;;;;;;;;;;23.50;54.30;;;;;;5047606;28;19928;-57
2022/06/28 04:49:20;;;;;;;;;;;23.50;54.30;;;;;;5040933;28;19932;-59
2022/06/28 04:51:46;;;;;;;;;;;23.50;54.30;;;;;;5071015;28;19974;-58
2022/06/28 04:54:13;;;;;;;;;;;23.50;54.30;;;;;;5061105;28;19958;-59
2022/06/28 04:56:40;;;;;;;;;;;23.50;54.30;;;;;;5044405;28;19928;-57
2022/06/28 04:59:07;;;;;;;;;;;23.50;54.30;;;;;;5052638;28;19920;-57
2022/06/28 05:01:33;;;;;;;;;;;23.60;54.40;;;;;;5051000;28;19927;-56
2022/06/28 05:04:00;;;;;;;;;;;23.50;54.30;;;;;;5060155;28;19927;-59
2022/06/28 05:06:28;;;;;;;;;;;23.60;54.40;;;;;;5061243;28;19924;-58
2022/06/28 05:08:56;;;;;;;;;;;23.60;54.40;;;;;;5060031;28;19951;-58
2022/06/28 05:11:22;;;;;;;;;;;23.50;54.30;;;;;;5052922;28;19971;-58
2022/06/28 05:13:49;;;;;;;;;;;23.50;54.30;;;;;;5059665;28;19962;-59
2022/06/28 05:16:16;;;;;;;;;;;23.50;54.30;;;;;;5062782;28;19927;-58
2022/06/28 05:18:43;;;;;;;;;;;23.60;54.40;;;;;;5039540;28;19928;-60
2022/06/28 05:21:09;;;;;;;;;;;23.50;54.30;;;;;;5046767;28;20315;-58
2022/06/28 05:23:38;;;;;;;;;;;23.50;54.30;;;;;;5060710;28;19920;-58
2022/06/28 05:26:05;;;;;;;;;;;23.50;54.30;;;;;;5065227;28;19920;-58
2022/06/28 05:28:32;;;;;;;;;;;23.50;54.30;;;;;;5062382;28;20011;-58
2022/06/28 05:30:58;;;;;;;;;;;23.50;54.30;;;;;;5039217;28;19921;-58
2022/06/28 05:33:25;;;;;;;;;;;23.50;54.40;;;;;;5048326;28;19990;-58
2022/06/28 05:35:52;;;;;;;;;;;23.50;54.90;;;;;;5052482;28;19960;-58
2022/06/28 05:38:18;;;;;;;;;;;23.50;54.40;;;;;;5064388;28;19921;-58
2022/06/28 05:40:46;;;;;;;;;;;23.50;54.40;;;;;;5054863;28;19928;-60
2022/06/28 05:43:13;;;;;;;;;;;23.50;54.40;;;;;;5060868;28;19973;-58
2022/06/28 05:45:40;;;;;;;;;;;23.50;54.40;;;;;;5053063;28;19924;-60
2022/06/28 05:48:07;;;;;;;;;;;23.50;54.40;;;;;;5069430;28;19928;-60
2022/06/28 05:50:34;;;;;;;;;;;23.50;54.40;;;;;;5041771;28;19921;-60
2022/06/28 05:53:01;;;;;;;;;;;23.50;54.40;;;;;;5057259;28;20324;-59
2022/06/28 05:55:28;;;;;;;;;;;23.50;54.40;;;;;;5052907;28;19920;-61
2022/06/28 05:57:57;;;;;;;;;;;23.50;54.40;;;;;;5048872;28;20382;-60
2022/06/28 06:00:23;;;;;;;;;;;23.50;54.40;;;;;;5058677;28;20361;-59
2022/06/28 06:02:50;;;;;;;;;;;23.50;54.50;;;;;;5037576;28;20404;-60
2022/06/28 06:05:17;;;;;;;;;;;23.50;54.50;;;;;;5055272;28;19975;-58
2022/06/28 06:07:44;;;;;;;;;;;23.50;54.50;;;;;;5054972;28;19920;-59
2022/06/28 06:10:11;;;;;;;;;;;23.50;54.50;;;;;;5060668;28;20315;-59
2022/06/28 06:12:38;;;;;;;;;;;23.50;54.50;;;;;;5055753;28;19931;-59
2022/06/28 06:15:07;;;;;;;;;;;23.50;54.50;;;;;;5068972;28;19920;-59
2022/06/28 06:17:34;;;;;;;;;;;23.50;54.50;;;;;;5071120;28;19920;-59
2022/06/28 06:20:02;;;;;;;;;;;23.50;54.50;;;;;;5071085;28;19924;-60
2022/06/28 06:22:29;;;;;;;;;;;23.50;54.50;;;;;;5056767;28;19974;-59
2022/06/28 06:24:56;;;;;;;;;;;23.50;54.50;;;;;;5044818;28;19928;-59
2022/06/28 06:27:22;;;;;;;;;;;23.50;54.50;;;;;;5035260;28;19971;-59
2022/06/28 06:29:49;;;;;;;;;;;23.50;54.50;;;;;;5045100;28;19982;-61
2022/06/28 06:32:17;;;;;;;;;;;23.50;54.50;;;;;;5060174;28;20377;-60
2022/06/28 06:34:45;;;;;;;;;;;23.50;54.50;;;;;;5036498;28;19974;-58
2022/06/28 06:37:12;;;;;;;;;;;23.50;54.60;;;;;;5051862;28;21124;-60
2022/06/28 06:39:39;;;;;;;;;;;23.50;54.60;;;;;;5037996;28;19921;-58
2022/06/28 06:42:06;;;;;;;;;;;23.50;54.70;;;;;;5051530;28;19924;-60
2022/06/28 06:44:33;;;;;;;;;;;23.50;54.60;;;;;;5052619;28;20317;-59
2022/06/28 06:46:59;;;;;;;;;;;23.50;54.60;;;;;;5052872;28;19924;-61
2022/06/28 06:49:28;;;;;;;;;;;23.50;54.60;;;;;;5054267;28;19927;-60
2022/06/28 06:51:54;;;;;;;;;;;23.50;54.50;;;;;;5045541;28;19964;-61
2022/06/28 06:54:21;;;;;;;;;;;23.50;54.50;;;;;;5052905;28;20007;-60
2022/06/28 06:56:48;;;;;;;;;;;23.50;54.50;;;;;;5036701;28;19928;-59
2022/06/28 06:59:16;;;;;;;;;;;23.50;54.50;;;;;;5059003;28;20404;-59
2022/06/28 07:01:42;;;;;;;;;;;23.50;54.50;;;;;;5069848;28;19920;-59
2022/06/28 07:04:09;;;;;;;;;;;23.50;54.50;;;;;;5069372;28;19920;-65
2022/06/28 07:06:38;;;;;;;;;;;23.50;54.50;;;;;;5069149;28;19930;-63
2022/06/28 07:09:04;;;;;;;;;;;23.50;54.40;;;;;;5058718;28;19942;-63
2022/06/28 07:11:31;;;;;;;;;;;23.50;54.40;;;;;;5058573;28;19935;-63
2022/06/28 07:13:58;;;;;;;;;;;23.60;54.40;;;;;;5069851;28;20270;-64
2022/06/28 07:16:25;;;;;;;;;;;23.50;54.30;;;;;;5057014;28;19920;-64
2022/06/28 07:18:51;;;;;;;;;;;23.50;54.20;;;;;;5069311;28;19970;-64
2022/06/28 07:21:18;;;;;;;;;;;23.60;54.30;;;;;;5068727;28;20332;-62
2022/06/28 07:23:46;;;;;;;;;;;23.60;54.20;;;;;;5069116;28;19970;-63
2022/06/28 07:26:13;;;;;;;;;;;23.60;54.20;;;;;;5047273;28;20365;-62
2022/06/28 07:28:40;;;;;;;;;;;23.60;54.10;;;;;;5039529;28;19920;-62
2022/06/28 07:31:06;;;;;;;;;;;23.60;54.10;;;;;;5069285;28;19921;-62
2022/06/28 07:33:33;;;;;;;;;;;23.60;54.10;;;;;;5068665;28;19964;-62
2022/06/28 07:36:00;;;;;;;;;;;23.60;54.00;;;;;;5067030;28;19924;-63
2022/06/28 07:38:29;;;;;;;;;;;23.60;53.90;;;;;;5052843;28;19921;-63
2022/06/28 07:40:58;;;;;;;;;;;23.60;53.70;;;;;;5070419;28;19954;-63
2022/06/28 07:43:26;;;;;;;;;;;23.60;53.50;;;;;;5040646;28;19974;-63
2022/06/28 07:45:52;;;;;;;;;;;23.60;53.40;;;;;;5062722;28;20011;-63
2022/06/28 07:48:19;;;;;;;;;;;23.60;53.20;;;;;;5067629;28;19977;-63
2022/06/28 07:53:31;;;;;;;;;;;23.60;53.00;;;;;;5048835;28;19928;-64
2022/06/28 07:55:59;;;;;;;;;;;23.60;52.90;;;;;;5069505;28;19960;-63
2022/06/28 07:58:26;;;;;;;;;;;23.60;52.80;;;;;;5065898;28;19921;-64
2022/06/28 08:00:53;;;;;;;;;;;23.60;52.70;;;;;;5069822;28;19920;-63
2022/06/28 08:03:20;;;;;;;;;;;23.60;52.60;;;;;;5051986;28;19927;-63
2022/06/28 08:05:46;;;;;;;;;;;23.60;52.40;;;;;;5064082;28;19920;-63
2022/06/28 08:08:13;;;;;;;;;;;23.60;52.30;;;;;;5049064;28;19966;-63
2022/06/28 08:10:40;;;;;;;;;;;23.60;52.20;;;;;;5050729;28;19993;-63
2022/06/28 08:13:08;;;;;;;;;;;23.60;52.10;;;;;;5051516;28;19960;-63
2022/06/28 08:15:35;;;;;;;;;;;23.60;52.00;;;;;;5064065;28;19928;-63
2022/06/28 08:18:02;;;;;;;;;;;23.60;51.90;;;;;;5047082;28;20025;-64
2022/06/28 08:20:31;;;;;;;;;;;23.60;51.70;;;;;;5071048;28;19982;-64
2022/06/28 08:22:58;;;;;;;;;;;23.60;51.60;;;;;;5035627;28;19921;-63
2022/06/28 08:25:24;;;;;;;;;;;23.60;51.50;;;;;;5041536;28;20318;-64
2022/06/28 08:27:51;;;;;;;;;;;23.60;51.30;;;;;;5051295;28;20008;-63
2022/06/28 08:30:19;;;;;;;;;;;23.60;51.20;;;;;;5052880;28;20024;-63
2022/06/28 08:32:46;;;;;;;;;;;23.60;51.00;;;;;;5044453;28;19927;-64
2022/06/28 08:35:13;;;;;;;;;;;23.60;50.90;;;;;;5068101;28;19927;-64
2022/06/28 08:37:39;;;;;;;;;;;23.60;50.90;;;;;;5068024;28;20023;-64
2022/06/28 08:40:07;;;;;;;;;;;23.60;50.70;;;;;;5045975;28;19966;-64
2022/06/28 08:42:35;;;;;;;;;;;23.60;50.50;;;;;;5069532;28;20195;-63
2022/06/28 08:45:01;;;;;;;;;;;23.60;50.40;;;;;;5051572;28;19928;-63
2022/06/28 08:47:30;;;;;;;;;;;23.50;50.30;;;;;;5050811;28;19942;-64
2022/06/28 08:49:57;;;;;;;;;;;23.50;50.20;;;;;;5042311;28;19956;-65
2022/06/28 08:52:25;;;;;;;;;;;23.50;50.20;;;;;;5058942;28;20327;-64
2022/06/28 08:54:52;;;;;;;;;;;23.50;50.20;;;;;;5052052;28;19948;-63
2022/06/28 08:57:19;;;;;;;;;;;23.50;50.30;;;;;;5064953;28;19921;-64
2022/06/28 08:59:46;;;;;;;;;;;23.50;50.40;;;;;;5042104;28;20368;-64
2022/06/28 09:02:13;;;;;;;;;;;23.60;50.40;;;;;;5055226;28;19940;-65
2022/06/28 09:04:41;;;;;;;;;;;23.60;50.40;;;;;;5065300;28;19966;-63
2022/06/28 09:07:08;;;;;;;;;;;23.60;50.40;;;;;;5046210;28;20425;-64
2022/06/28 09:09:35;;;;;;;;;;;23.60;50.30;;;;;;5069958;28;19924;-64
2022/06/28 09:12:02;;;;;;;;;;;23.60;50.30;;;;;;5063292;28;19927;-65
2022/06/28 09:14:29;;;;;;;;;;;23.60;50.30;;;;;;5037744;28;20370;-64
2022/06/28 09:16:56;;;;;;;;;;;23.60;50.30;;;;;;5057166;28;19964;-64
2022/06/28 09:19:32;;;;;;;;;;;23.60;50.30;;;;;;5050750;28;19924;-64
2022/06/28 09:22:00;;;;;;;;;;;23.60;50.30;;;;;;5058693;28;19920;-65
2022/06/28 09:24:27;;;;;;;;;;;23.60;50.30;;;;;;5050744;28;20023;-64
2022/06/28 09:26:55;;;;;;;;;;;23.60;50.90;;;;;;5042064;28;19925;-64
2022/06/28 09:29:22;;;;;;;;;;;23.60;50.30;;;;;;5069975;28;19921;-64
2022/06/28 09:31:48;;;;;;;;;;;23.60;50.40;;;;;;5063084;28;20316;-64
2022/06/28 09:34:16;;;;;;;;;;;23.60;50.40;;;;;;5051751;28;19943;-64
2022/06/28 09:36:54;;;;;;;;;;;23.60;50.30;;;;;;5067171;28;19967;-64
2022/06/28 09:39:23;;;;;;;;;;;23.70;50.30;;;;;;5053924;28;19942;-65
2022/06/28 09:41:50;;;;;;;;;;;23.60;50.20;;;;;;5060761;28;20251;-64
2022/06/28 09:44:18;;;;;;;;;;;23.70;50.20;;;;;;5049335;28;20005;-64
2022/06/28 09:46:45;;;;;;;;;;;23.60;50.00;;;;;;5053857;28;19943;-65
2022/06/28 09:49:12;;;;;;;;;;;23.60;50.00;;;;;;5054452;28;19932;-64
2022/06/28 09:51:39;;;;;;;;;;;23.60;49.90;;;;;;5070783;28;20019;-65
2022/06/28 09:54:06;;;;;;;;;;;23.70;50.00;;;;;;5054532;28;20333;-65
2022/06/28 09:56:35;;;;;;;;;;;23.70;50.00;;;;;;5055869;28;19930;-64
2022/06/28 09:59:02;;;;;;;;;;;23.70;49.90;;;;;;5054301;28;19921;-64
2022/06/28 10:01:29;;;;;;;;;;;23.70;49.90;;;;;;5055822;28;19951;-63
2022/06/28 10:03:56;;;;;;;;;;;23.70;49.90;;;;;;5057733;28;19963;-63
2022/06/28 10:06:22;;;;;;;;;;;23.70;49.80;;;;;;5063494;28;19979;-63
2022/06/28 10:08:49;;;;;;;;;;;23.70;49.80;;;;;;5040832;28;19921;-64
2022/06/28 10:11:16;;;;;;;;;;;23.70;49.70;;;;;;5043521;28;20015;-64
2022/06/28 10:16:44;;;;;;;;;;;23.70;49.60;;;;;;5064775;28;19927;-64
2022/06/28 10:19:11;;;;;;;;;;;23.70;49.50;;;;;;5054609;28;20159;-64
2022/06/28 10:21:44;;;;;;;;;;;23.70;49.40;;;;;;5074127;28;19924;-61
2022/06/28 10:24:12;;;;;;;;;;;23.70;49.30;;;;;;5062574;28;20043;-61
2022/06/28 10:26:39;;;;;;;;;;;23.70;49.30;;;;;;5045564;28;20047;-60
2022/06/28 10:29:08;;;;;;;;;;;23.70;49.20;;;;;;5069111;28;19976;-60
2022/06/28 10:31:36;;;;;;;;;;;23.70;49.10;;;;;;5067318;28;19927;-60
2022/06/28 10:34:03;;;;;;;;;;;23.70;49.00;;;;;;5066356;28;19931;-61
2022/06/28 10:36:33;;;;;;;;;;;23.70;49.00;;;;;;5041826;28;19920;-60
2022/06/28 10:39:16;;;;;;;;;;;23.70;48.90;;;;;;5053309;28;20350;-60
2022/06/28 10:41:43;;;;;;;;;;;23.70;48.90;;;;;;5063706;28;20039;-62
2022/06/28 10:44:12;;;;;;;;;;;23.70;49.00;;;;;;5060443;28;19924;-64
2022/06/28 10:46:39;;;;;;;;;;;23.70;49.20;;;;;;5046994;28;19996;-61
2022/06/28 10:49:15;;;;;;;;;;;23.70;49.40;;;;;;5069724;28;19929;-62
2022/06/28 10:51:42;;;;;;;;;;;23.70;49.10;;;;;;5043326;28;20031;-61
2022/06/28 10:54:10;;;;;;;;;;;23.70;49.00;;;;;;5052326;28;19924;-62
2022/06/28 10:56:37;;;;;;;;;;;23.70;48.30;;;;;;5055334;28;19924;-62
2022/06/28 10:59:04;;;;;;;;;;;23.70;47.90;;;;;;5037302;28;19970;-62
2022/06/28 11:01:50;;;;;;;;;;;23.70;47.70;;;;;;5037453;28;19920;-62
2022/06/28 11:04:23;;;;;;;;;;;23.70;47.40;;;;;;5055055;28;20368;-62
2022/06/28 11:06:50;;;;;;;;;;;23.60;47.30;;;;;;5037677;28;19925;-64
2022/06/28 11:09:19;;;;;;;;;;;23.60;47.20;;;;;;5073404;28;19924;-64
2022/06/28 11:12:01;;;;;;;;;;;23.60;47.30;;;;;;5090895;28;19920;-64
2022/06/28 11:14:28;;;;;;;;;;;23.60;47.40;;;;;;5074402;28;19978;-64
2022/06/28 11:16:54;;;;;;;;;;;23.60;47.50;;;;;;5075400;28;20027;-63
2022/06/28 11:19:22;;;;;;;;;;;23.60;47.60;;;;;;5057439;28;19925;-66
2022/06/28 11:21:49;;;;;;;;;;;23.60;47.60;;;;;;5073607;28;19973;-61
2022/06/28 11:24:16;;;;;;;;;;;23.60;47.70;;;;;;5074990;28;19920;-64
2022/06/28 11:29:27;;;;;;;;;;;23.70;48.00;;;;;;5075410;28;19991;-64
2022/06/28 11:31:53;;;;;;;;;;;23.70;48.00;;;;;;5074906;28;19932;-64
2022/06/28 11:34:25;;;;;;;;;;;23.70;48.00;;;;;;5073394;28;20246;-66
2022/06/28 11:36:54;;;;;;;;;;;23.70;48.00;;;;;;5057227;28;19926;-64
2022/06/28 11:39:23;;;;;;;;;;;23.70;47.90;;;;;;5056780;28;20015;-64
2022/06/28 11:41:50;;;;;;;;;;;23.70;47.90;;;;;;5074593;28;20345;-64
2022/06/28 11:44:16;;;;;;;;;;;23.70;47.90;;;;;;5052671;28;19927;-64
2022/06/28 11:46:43;;;;;;;;;;;23.70;47.80;;;;;;5053618;28;19920;-64
2022/06/28 11:49:10;;;;;;;;;;;23.70;47.90;;;;;;5036324;28;20323;-64
2022/06/28 11:51:40;;;;;;;;;;;23.70;47.90;;;;;;5054866;28;19928;-64
2022/06/28 11:54:07;;;;;;;;;;;23.70;47.90;;;;;;5060370;28;19982;-64
2022/06/28 11:56:44;;;;;;;;;;;23.70;47.90;;;;;;5074544;28;19924;-63
2022/06/28 11:59:10;;;;;;;;;;;23.70;47.90;;;;;;5056832;28;19928;-64
2022/06/28 12:01:38;;;;;;;;;;;23.70;47.80;;;;;;5074261;28;19924;-63
2022/06/28 12:04:06;;;;;;;;;;;23.80;47.90;;;;;;5074233;28;19924;-66
2022/06/28 12:06:33;;;;;;;;;;;23.80;47.90;;;;;;5056439;28;19920;-63
2022/06/28 12:09:02;;;;;;;;;;;23.80;47.90;;;;;;5055875;28;20016;-64
2022/06/28 12:11:29;;;;;;;;;;;23.80;48.40;;;;;;5056551;28;19974;-64
2022/06/28 12:13:59;;;;;;;;;;;23.80;47.70;;;;;;5055760;28;19982;-64
2022/06/28 12:16:30;;;;;;;;;;;23.80;47.60;;;;;;5073980;28;19927;-64
2022/06/28 12:18:56;;;;;;;;;;;23.80;47.60;;;;;;5056484;28;19942;-64
2022/06/28 12:21:23;;;;;;;;;;;23.80;47.60;;;;;;5054185;28;20289;-64
2022/06/28 12:23:51;;;;;;;;;;;23.80;47.50;;;;;;5074084;28;19921;-64
2022/06/28 12:26:21;;;;;;;;;;;23.80;47.50;;;;;;5072707;28;20424;-64
2022/06/28 12:28:48;;;;;;;;;;;23.80;47.50;;;;;;5056669;28;19982;-63
2022/06/28 12:31:17;;;;;;;;;;;23.80;48.10;;;;;;5055958;28;19924;-65
2022/06/28 12:33:43;;;;;;;;;;;23.80;47.50;;;;;;5067538;28;20268;-63
2022/06/28 12:36:10;;;;;;;;;;;23.80;47.50;;;;;;5053884;28;19975;-62
2022/06/28 12:38:37;;;;;;;;;;;23.80;47.50;;;;;;5035851;28;19925;-64
2022/06/28 12:41:03;;;;;;;;;;;23.80;47.60;;;;;;5053774;28;19921;-64
2022/06/28 12:43:32;;;;;;;;;;;23.80;47.70;;;;;;5035883;28;19975;-64
2022/06/28 12:45:58;;;;;;;;;;;23.80;47.70;;;;;;5054127;28;20376;-64
2022/06/28 12:48:25;;;;;;;;;;;23.80;47.60;;;;;;5053850;28;19924;-64
2022/06/28 12:50:52;;;;;;;;;;;23.80;47.60;;;;;;5052272;28;19948;-63
2022/06/28 12:53:20;;;;;;;;;;;23.90;47.80;;;;;;5068919;28;19921;-63
2022/06/28 12:55:46;;;;;;;;;;;23.90;47.80;;;;;;5035715;28;20341;-63
2022/06/28 12:58:13;;;;;;;;;;;23.90;47.70;;;;;;5053585;28;19921;-64
2022/06/28 13:00:42;;;;;;;;;;;23.90;47.80;;;;;;5052875;28;19963;-64
2022/06/28 13:03:08;;;;;;;;;;;23.90;47.70;;;;;;5035402;28;19920;-63
2022/06/28 13:05:35;;;;;;;;;;;23.90;47.70;;;;;;5052595;28;19924;-63
2022/06/28 13:08:03;;;;;;;;;;;23.90;47.70;;;;;;5055481;28;19927;-64
2022/06/28 13:10:29;;;;;;;;;;;23.90;47.70;;;;;;5077073;28;19920;-63
2022/06/28 13:12:56;;;;;;;;;;;23.90;47.70;;;;;;5077539;28;19960;-63
2022/06/28 13:15:23;;;;;;;;;;;23.90;47.80;;;;;;5059710;28;19927;-63
2022/06/28 13:17:51;;;;;;;;;;;23.90;47.80;;;;;;5077445;28;19924;-64
2022/06/28 13:20:18;;;;;;;;;;;23.90;47.90;;;;;;5075695;28;20434;-64
2022/06/28 13:22:45;;;;;;;;;;;23.90;47.90;;;;;;5057840;28;19931;-64
2022/06/28 13:25:12;;;;;;;;;;;24.00;48.00;;;;;;5059698;28;19920;-64
2022/06/28 13:27:39;;;;;;;;;;;24.00;48.00;;;;;;5076357;28;20380;-64
2022/06/28 13:30:06;;;;;;;;;;;24.00;47.90;;;;;;5077191;28;20011;-63
2022/06/28 13:32:34;;;;;;;;;;;24.00;47.80;;;;;;5076911;28;19966;-63
2022/06/28 13:35:03;;;;;;;;;;;24.00;47.70;;;;;;5059825;28;19921;-63
2022/06/28 13:37:30;;;;;;;;;;;24.00;47.60;;;;;;5076401;28;19970;-65
2022/06/28 13:39:57;;;;;;;;;;;24.00;47.50;;;;;;5057155;28;19927;-64
2022/06/28 13:42:23;;;;;;;;;;;24.00;47.40;;;;;;5076256;28;19927;-64
2022/06/28 13:44:50;;;;;;;;;;;24.00;47.40;;;;;;5060895;28;19925;-64
2022/06/28 13:47:17;;;;;;;;;;;24.00;47.40;;;;;;5049887;28;20277;-64
2022/06/28 13:49:44;;;;;;;;;;;24.00;47.40;;;;;;5054541;28;20004;-64
2022/06/28 13:52:12;;;;;;;;;;;24.00;47.30;;;;;;5063053;28;19921;-64
2022/06/28 13:54:39;;;;;;;;;;;24.00;47.40;;;;;;5055020;28;19921;-61
2022/06/28 13:57:06;;;;;;;;;;;24.00;47.40;;;;;;5054710;28;20019;-64
2022/06/28 13:59:33;;;;;;;;;;;24.00;47.40;;;;;;5048013;28;19921;-64
2022/06/28 14:01:59;;;;;;;;;;;24.00;47.50;;;;;;5062443;28;19932;-64
2022/06/28 14:04:26;;;;;;;;;;;24.00;47.60;;;;;;5057088;28;19927;-64
2022/06/28 14:06:53;;;;;;;;;;;24.00;47.60;;;;;;5062252;28;19920;-63
2022/06/28 14:09:21;;;;;;;;;;;24.00;47.60;;;;;;5055441;28;19966;-64
2022/06/28 14:11:48;;;;;;;;;;;24.10;47.70;;;;;;5058469;28;19946;-64
2022/06/28 14:14:15;;;;;;;;;;;24.00;47.70;;;;;;5046950;28;19967;-63
2022/06/28 14:16:41;;;;;;;;;;;24.10;47.70;;;;;;5070108;28;19920;-64
2022/06/28 14:19:08;;;;;;;;;;;24.10;47.70;;;;;;5065274;28;19928;-64
2022/06/28 14:21:35;;;;;;;;;;;24.10;47.70;;;;;;5043558;28;19920;-64
2022/06/28 14:24:02;;;;;;;;;;;24.10;47.70;;;;;;5070096;28;19960;-64
2022/06/28 14:26:30;;;;;;;;;;;24.10;47.70;;;;;;5067032;28;19920;-64
2022/06/28 14:28:57;;;;;;;;;;;24.10;47.70;;;;;;5069789;28;20250;-64
2022/06/28 14:31:24;;;;;;;;;;;24.10;47.60;;;;;;5062126;28;20308;-66
2022/06/28 14:33:51;;;;;;;;;;;24.10;47.50;;;;;;5052482;28;19921;-64